PASN/SNP METAR and TAF weather

Enter ICAO airport designator
Station Type Date Time Source
PASN METAR 2021/06/22 23:39 UTC NOAA

PASN 222339Z AUTO 07012KT 10SM BKN008 OVC026 10/09 A2948 RMK AO2 CIG 004V010 T01000094 TSNO


Station Type Date Time Source
PASN Decoded METAR 2021/06/22 23:39 UTC NOAA

ST PAUL ISLAND AIRPORT, AK, United States (PASN) 57-10N 170-13W 9M
Jun 22, 2021 - 07:39 PM EDT / 2021.06.22 2339 UTC
Wind: from the ENE (070 degrees) at 14 MPH (12 KT):0
Visibility: 10 mile(s):0
Sky conditions: overcast
Temperature: 50.0 F (10.0 C)
Dew Point: 48.9 F (9.4 C)
Relative Humidity: 96%
Pressure (altimeter): 29.48 in. Hg (998 hPa)
ob: PASN 222339Z AUTO 07012KT 10SM BKN008 OVC026 10/09 A2948 RMK AO2 CIG 004V010 T01000094 TSNO
cycle: 23

Station Type Date Time Source
PASN TAF 2021/06/22 20:39 UTC NOAA

TAF
AMD PASN 221935Z 2220/2318 08013KT P6SM VCFG FEW004 BKN013
FM230200 08011KT P6SM VCFG OVC007
FM230800 08008KT P6SM VCSH OVC007

Example: see airport list